Time;durP1;ratioP1;P1;durP2;ratioP2;P2;SDS_P1;SDS_P2;PMS_P1;PMS_P2;Temp;Humidity;BMP_temperature;BMP_pressure;BME280_temperature;BME280_humidity;BME280_pressure;Samples;Min_cycle;Max_cycle;Signal;HPM_P1;HPM_P2
2021/12/05 00:23:40;;;;;;;0.70;0.70;;;1.70;99.90;;;;;;5076157;28;20176;-69
2021/12/05 00:26:11;;;;;;;0.57;0.57;;;1.70;99.90;;;;;;5076050;28;20311;-69
2021/12/05 00:29:07;;;;;;;0.60;0.60;;;1.70;99.90;;;;;;5076086;28;20188;-69
2021/12/05 00:31:56;;;;;;;0.70;0.70;;;1.60;99.90;;;;;;5075978;28;20211;-69
2021/12/05 00:48:35;;;;;;;0.70;0.70;;;1.50;99.90;;;;;;5075409;28;20199;-68
2021/12/05 00:56:51;;;;;;;0.63;0.63;;;1.40;99.90;;;;;;5075088;28;20311;-69
2021/12/05 00:59:34;;;;;;;0.60;0.60;;;1.40;99.90;;;;;;5075969;28;20220;-69
2021/12/05 01:05:25;;;;;;;0.60;0.60;;;1.30;99.90;;;;;;5075233;28;20636;-68
2021/12/05 01:11:07;;;;;;;0.70;0.70;;;1.30;99.90;;;;;;5057079;28;20675;-68
2021/12/05 01:13:38;;;;;;;0.65;0.65;;;1.30;99.90;;;;;;5074964;28;20196;-68
2021/12/05 01:16:09;;;;;;;0.50;0.50;;;1.20;99.90;;;;;;5074512;28;20231;-68
2021/12/05 01:18:36;;;;;;;0.60;0.60;;;1.20;99.90;;;;;;5074925;28;20180;-68
2021/12/05 01:21:10;;;;;;;0.50;0.50;;;1.30;99.90;;;;;;5073532;28;20232;-68
2021/12/05 01:23:46;;;;;;;0.60;0.60;;;1.30;99.90;;;;;;5074769;28;20188;-68
2021/12/05 01:26:19;;;;;;;0.70;0.70;;;1.30;99.90;;;;;;5074678;28;20227;-68
2021/12/05 01:29:03;;;;;;;0.60;0.60;;;1.40;99.90;;;;;;5074734;28;20215;-68
2021/12/05 01:31:40;;;;;;;0.57;0.57;;;1.40;99.90;;;;;;5074667;28;20191;-69
2021/12/05 01:34:19;;;;;;;0.70;0.70;;;1.50;99.90;;;;;;5074638;28;20188;-69
2021/12/05 01:37:04;;;;;;;0.50;0.50;;;1.40;99.90;;;;;;5074522;28;20204;-69
2021/12/05 01:39:42;;;;;;;0.50;0.50;;;1.60;99.90;;;;;;5074474;28;20184;-69
2021/12/05 01:42:47;;;;;;;0.50;0.50;;;1.60;99.90;;;;;;5074539;28;20188;-69
2021/12/05 01:51:16;;;;;;;0.50;0.50;;;1.70;99.90;;;;;;5049386;28;20192;-70
2021/12/05 02:16:04;;;;;;;1.40;0.60;;;1.70;99.90;;;;;;5040084;28;20243;-69
2021/12/05 02:30:00;;;;;;;0.60;0.60;;;1.80;99.90;;;;;;5073798;28;20180;-69
2021/12/05 07:53:41;;;;;;;0.90;0.90;;;1.90;99.90;;;;;;5361650;22;20260;-67
2021/12/05 07:56:13;;;;;;;0.95;0.95;;;1.90;99.90;;;;;;5016647;28;20276;-67
2021/12/05 07:58:55;;;;;;;0.80;0.80;;;2.00;99.90;;;;;;5016809;28;20210;-67
2021/12/05 08:15:15;;;;;;;1.10;1.00;;;2.50;99.90;;;;;;5017003;28;20297;-65
2021/12/05 08:17:50;;;;;;;0.90;0.90;;;2.50;99.90;;;;;;5016378;28;20297;-65
2021/12/05 08:20:17;;;;;;;1.45;0.80;;;2.50;99.90;;;;;;5016539;28;20194;-65
2021/12/05 08:22:44;;;;;;;0.90;0.90;;;2.50;99.90;;;;;;5015993;28;20723;-65
2021/12/05 08:25:13;;;;;;;1.05;1.05;;;2.50;99.90;;;;;;5016016;28;20205;-65
2021/12/05 08:27:46;;;;;;;0.80;0.80;;;2.50;99.90;;;;;;5016361;28;20198;-65
2021/12/05 08:30:21;;;;;;;0.88;0.88;;;2.50;99.90;;;;;;5017688;28;20589;-66
2021/12/05 08:33:07;;;;;;;0.93;0.93;;;2.50;99.90;;;;;;5021414;28;20217;-67
2021/12/05 08:36:06;;;;;;;1.40;1.40;;;2.50;99.90;;;;;;5021124;28;20620;-67
2021/12/05 08:41:54;;;;;;;0.90;0.90;;;2.30;99.90;;;;;;5019004;28;20187;-68
2021/12/05 09:51:21;;;;;;;1.00;1.00;;;3.70;99.90;;;;;;5008530;28;20295;-71
2021/12/05 10:08:02;;;;;;;1.63;1.27;;;3.70;99.90;;;;;;5014426;28;20178;-71
2021/12/05 10:10:37;;;;;;;1.05;1.05;;;3.70;99.90;;;;;;5014409;28;20592;-72
2021/12/05 10:13:16;;;;;;;1.48;1.38;;;3.80;99.90;;;;;;5014541;28;20240;-72
2021/12/05 10:15:55;;;;;;;1.00;1.00;;;3.80;99.90;;;;;;5014642;28;20190;-72
2021/12/05 10:27:13;;;;;;;1.15;1.05;;;3.70;99.90;;;;;;5014801;28;20692;-72
2021/12/05 10:35:40;;;;;;;0.82;0.80;;;3.70;99.90;;;;;;5014134;28;20185;-71
2021/12/05 15:27:10;;;;;;;1.35;1.25;;;2.90;99.90;;;;;;5139770;23;20235;-74
2021/12/05 15:29:45;;;;;;;1.00;1.00;;;2.90;99.90;;;;;;4974524;28;20730;-72
2021/12/05 15:32:16;;;;;;;0.98;0.98;;;2.80;99.90;;;;;;4974102;28;20642;-71
2021/12/05 15:34:44;;;;;;;1.20;1.20;;;2.70;99.90;;;;;;4974522;28;20274;-71
2021/12/05 15:37:12;;;;;;;1.20;1.17;;;2.70;99.90;;;;;;4974178;28;20223;-70
2021/12/05 15:39:43;;;;;;;0.95;0.95;;;2.60;99.90;;;;;;4977322;28;20246;-71
2021/12/05 15:42:22;;;;;;;0.88;0.88;;;2.60;99.90;;;;;;4977710;28;20187;-71
2021/12/05 15:44:52;;;;;;;0.90;0.90;;;2.60;99.90;;;;;;4977739;28;20626;-71
2021/12/05 15:47:22;;;;;;;0.70;0.70;;;2.60;99.90;;;;;;4977955;28;20227;-71
2021/12/05 15:50:00;;;;;;;1.02;1.02;;;2.60;99.90;;;;;;4977814;28;20210;-71
2021/12/05 15:52:36;;;;;;;0.82;0.82;;;2.60;99.90;;;;;;4978084;28;20586;-71
2021/12/05 15:55:08;;;;;;;0.75;0.75;;;2.60;99.90;;;;;;4977655;28;20194;-71
2021/12/05 15:57:40;;;;;;;0.90;0.90;;;2.60;99.90;;;;;;4977489;28;20191;-71
2021/12/05 16:00:16;;;;;;;0.70;0.70;;;2.60;99.90;;;;;;4977853;28;20192;-72
2021/12/05 16:02:47;;;;;;;0.80;0.80;;;2.70;99.90;;;;;;4977783;28;20226;-71
2021/12/05 16:05:20;;;;;;;0.60;0.60;;;2.70;99.90;;;;;;4979877;28;20551;-71
2021/12/05 16:07:50;;;;;;;0.80;0.80;;;2.70;99.90;;;;;;4978249;28;20550;-71
2021/12/05 16:10:20;;;;;;;0.85;0.85;;;2.70;99.90;;;;;;4979236;28;20725;-72
2021/12/05 16:12:50;;;;;;;0.70;0.70;;;2.70;99.90;;;;;;4977423;28;20623;-72
2021/12/05 16:15:20;;;;;;;0.80;0.80;;;2.60;99.90;;;;;;4977176;28;20310;-68
2021/12/05 16:17:59;;;;;;;0.80;0.80;;;2.60;99.90;;;;;;4977611;28;20258;-70
2021/12/05 16:20:29;;;;;;;0.70;0.70;;;2.60;99.90;;;;;;4977400;28;20210;-70
2021/12/05 16:23:07;;;;;;;0.85;0.85;;;2.50;99.90;;;;;;4976771;28;20207;-71
2021/12/05 16:25:37;;;;;;;0.70;0.70;;;2.40;99.90;;;;;;4960221;28;20235;-69
2021/12/05 16:28:07;;;;;;;0.80;0.80;;;2.40;99.90;;;;;;4977332;28;20579;-71
2021/12/05 16:30:39;;;;;;;0.85;0.85;;;2.40;99.90;;;;;;4977422;28;20242;-70
2021/12/05 16:33:07;;;;;;;0.60;0.60;;;2.40;99.90;;;;;;4977116;28;20299;-70
2021/12/05 16:35:36;;;;;;;0.73;0.73;;;2.40;99.90;;;;;;4977239;28;20652;-70
2021/12/05 16:38:22;;;;;;;0.60;0.60;;;2.30;99.90;;;;;;4977966;28;20315;-71
2021/12/05 16:41:05;;;;;;;1.15;1.05;;;2.30;99.90;;;;;;4976875;28;20279;-70
2021/12/05 16:43:36;;;;;;;0.98;0.98;;;2.20;99.90;;;;;;4977057;28;20274;-69
2021/12/05 16:46:09;;;;;;;0.73;0.73;;;2.10;99.90;;;;;;4976547;28;20234;-69
2021/12/05 16:48:39;;;;;;;0.70;0.70;;;2.00;99.90;;;;;;4977107;28;20179;-69
2021/12/05 16:51:21;;;;;;;0.73;0.73;;;2.00;99.90;;;;;;4976444;28;20290;-70
2021/12/05 16:53:51;;;;;;;0.85;0.85;;;1.90;99.90;;;;;;4976807;28;20266;-69
2021/12/05 16:56:38;;;;;;;0.98;0.98;;;1.80;99.90;;;;;;4976431;28;20266;-70
2021/12/05 16:59:14;;;;;;;1.08;1.08;;;1.70;99.90;;;;;;4976969;28;20270;-71
2021/12/05 17:01:42;;;;;;;1.00;1.00;;;1.60;99.90;;;;;;4977047;28;20191;-70
2021/12/05 17:04:11;;;;;;;1.10;1.10;;;1.50;99.90;;;;;;4976664;28;20259;-69
2021/12/05 17:06:52;;;;;;;0.90;0.90;;;1.50;99.90;;;;;;4976445;28;20706;-70
2021/12/05 17:09:19;;;;;;;1.10;1.10;;;1.40;99.90;;;;;;4976658;28;20242;-70
2021/12/05 17:11:47;;;;;;;0.90;0.90;;;1.40;99.90;;;;;;4976493;28;20203;-69
2021/12/05 17:14:25;;;;;;;0.90;0.90;;;1.30;99.90;;;;;;4976514;28;20255;-67
2021/12/05 17:16:52;;;;;;;0.80;0.80;;;1.20;99.90;;;;;;4976434;28;20293;-68
2021/12/05 17:19:27;;;;;;;1.20;1.20;;;1.20;99.90;;;;;;4976178;28;20321;-68
2021/12/05 17:21:54;;;;;;;1.52;1.20;;;1.10;99.90;;;;;;4975856;28;20697;-69
2021/12/05 17:24:25;;;;;;;1.25;1.17;;;1.10;99.90;;;;;;4975953;28;20322;-70
2021/12/05 17:26:55;;;;;;;1.42;1.33;;;1.00;99.90;;;;;;4975791;28;20227;-68
2021/12/05 17:29:27;;;;;;;1.50;1.50;;;1.00;99.90;;;;;;4976048;28;20742;-69
2021/12/05 17:31:57;;;;;;;1.30;1.20;;;1.00;99.90;;;;;;4977185;28;20666;-69
2021/12/05 17:34:26;;;;;;;1.15;1.15;;;0.90;99.90;;;;;;4976365;28;20188;-70
2021/12/05 17:36:57;;;;;;;1.00;1.00;;;0.90;99.90;;;;;;4959681;28;20691;-70
2021/12/05 17:39:29;;;;;;;1.20;1.20;;;0.90;99.90;;;;;;4975948;28;20222;-71
2021/12/05 17:42:02;;;;;;;1.17;1.17;;;0.80;99.90;;;;;;4975749;28;20295;-71
2021/12/05 17:44:33;;;;;;;0.90;0.90;;;0.80;99.90;;;;;;4975647;28;20196;-67
2021/12/05 17:47:02;;;;;;;1.10;1.10;;;0.80;99.90;;;;;;4975438;28;20237;-69
2021/12/05 17:49:32;;;;;;;1.02;1.02;;;0.80;99.90;;;;;;4975977;28;20293;-70
2021/12/05 17:52:00;;;;;;;1.00;1.00;;;0.80;99.90;;;;;;4976885;28;20199;-70
2021/12/05 17:54:33;;;;;;;0.95;0.95;;;0.70;99.90;;;;;;4975680;28;20612;-70
2021/12/05 17:57:09;;;;;;;0.70;0.70;;;0.70;99.90;;;;;;4975215;28;20234;-70
2021/12/05 17:59:55;;;;;;;0.80;0.80;;;0.70;99.90;;;;;;4977961;28;20670;-70
2021/12/05 18:02:43;;;;;;;0.90;0.90;;;0.60;99.90;;;;;;4977562;28;20219;-69
2021/12/05 18:05:16;;;;;;;0.90;0.90;;;0.60;99.90;;;;;;4978057;28;20204;-68
2021/12/05 18:07:47;;;;;;;1.30;1.20;;;0.60;99.90;;;;;;4977645;28;20528;-69
2021/12/05 18:10:20;;;;;;;1.10;1.10;;;0.50;99.90;;;;;;4977585;28;20250;-69
2021/12/05 18:12:49;;;;;;;1.10;1.10;;;0.50;99.90;;;;;;4977191;28;20214;-70
2021/12/05 18:15:25;;;;;;;1.33;1.33;;;0.40;99.90;;;;;;4977316;28;20238;-70
2021/12/05 18:17:53;;;;;;;1.20;1.20;;;0.40;99.90;;;;;;4977709;28;20195;-70
2021/12/05 18:20:25;;;;;;;1.30;1.30;;;0.40;99.90;;;;;;4978540;28;20277;-72
2021/12/05 18:22:53;;;;;;;1.10;1.10;;;0.40;99.90;;;;;;4978199;28;20192;-69
2021/12/05 18:25:20;;;;;;;1.13;1.13;;;0.40;99.90;;;;;;4977579;28;20563;-69
2021/12/05 18:27:48;;;;;;;0.88;0.88;;;0.30;99.90;;;;;;4977875;28;20211;-70
2021/12/05 18:30:23;;;;;;;1.08;1.08;;;0.30;99.90;;;;;;4977186;28;20234;-70
2021/12/05 18:32:52;;;;;;;0.95;0.95;;;0.30;99.90;;;;;;4978142;28;20675;-70
2021/12/05 18:35:21;;;;;;;1.00;1.00;;;0.30;99.90;;;;;;4978091;28;20223;-71
2021/12/05 18:37:50;;;;;;;0.90;0.90;;;0.30;99.90;;;;;;4976359;28;20199;-72
2021/12/05 18:40:18;;;;;;;1.10;1.10;;;0.20;99.90;;;;;;4976890;28;20227;-70
2021/12/05 18:42:47;;;;;;;0.98;0.98;;;0.20;99.90;;;;;;4976467;28;20203;-72
2021/12/05 18:45:18;;;;;;;1.00;1.00;;;0.30;99.90;;;;;;4977882;28;20265;-70
2021/12/05 18:47:47;;;;;;;0.90;0.90;;;0.30;99.90;;;;;;4978400;28;20184;-70
2021/12/05 18:50:16;;;;;;;0.80;0.80;;;0.40;99.90;;;;;;4978248;28;20209;-69
2021/12/05 18:52:43;;;;;;;1.40;1.40;;;0.50;99.90;;;;;;4977123;28;20208;-69
2021/12/05 18:55:15;;;;;;;1.17;1.17;;;0.50;99.90;;;;;;4974678;28;20233;-70
2021/12/05 18:57:44;;;;;;;1.00;1.00;;;0.50;99.90;;;;;;4974829;28;20261;-68
2021/12/05 19:00:24;;;;;;;1.27;1.27;;;0.60;99.90;;;;;;4974846;28;20699;-69
2021/12/05 19:05:48;;;;;;;1.00;1.00;;;0.70;99.90;;;;;;4974709;28;20670;-67
2021/12/05 19:08:31;;;;;;;1.05;1.05;;;0.70;99.90;;;;;;4975400;28;20191;-68
2021/12/05 19:13:44;;;;;;;0.95;0.95;;;0.90;99.90;;;;;;4976577;28;20543;-69
2021/12/05 19:16:13;;;;;;;1.40;1.30;;;0.90;99.90;;;;;;4978752;28;20227;-69
2021/12/05 19:18:42;;;;;;;1.50;1.50;;;0.90;99.90;;;;;;4978384;28;20297;-70
2021/12/05 19:21:10;;;;;;;2.20;2.10;;;0.90;99.90;;;;;;4978976;28;20207;-69
2021/12/05 19:23:38;;;;;;;2.10;2.00;;;1.00;99.90;;;;;;4978496;28;20195;-70
2021/12/05 19:26:08;;;;;;;1.90;1.90;;;1.00;99.90;;;;;;4978507;28;20216;-70
2021/12/05 19:28:36;;;;;;;1.75;1.65;;;1.00;99.90;;;;;;4978369;28;20221;-69
2021/12/05 19:31:04;;;;;;;1.80;1.70;;;1.00;99.90;;;;;;4978294;28;20199;-69
2021/12/05 19:33:32;;;;;;;1.65;1.60;;;1.00;99.90;;;;;;4961101;28;20239;-69
2021/12/05 19:36:03;;;;;;;1.40;1.40;;;1.00;99.90;;;;;;4961568;28;20230;-70
2021/12/05 19:38:30;;;;;;;1.70;1.60;;;1.00;99.90;;;;;;4978562;28;20279;-69
2021/12/05 19:41:04;;;;;;;1.55;1.55;;;1.00;99.90;;;;;;4978330;28;20223;-70
2021/12/05 19:43:34;;;;;;;1.35;1.33;;;0.90;99.90;;;;;;4978095;28;20199;-69
2021/12/05 19:46:04;;;;;;;1.30;1.30;;;0.90;99.90;;;;;;4977749;28;20262;-69
2021/12/05 19:48:32;;;;;;;1.40;1.30;;;0.80;99.90;;;;;;4977909;28;20274;-69
2021/12/05 19:51:07;;;;;;;1.20;1.20;;;0.80;99.90;;;;;;4960742;28;20778;-69
2021/12/05 19:53:37;;;;;;;1.30;1.30;;;0.70;99.90;;;;;;4977846;28;20201;-69
2021/12/05 19:56:05;;;;;;;1.20;1.20;;;0.70;99.90;;;;;;4977797;28;20718;-69
2021/12/05 19:58:33;;;;;;;1.50;1.50;;;0.70;99.90;;;;;;4978172;28;20285;-67
2021/12/05 20:01:01;;;;;;;1.10;1.10;;;0.70;99.90;;;;;;4978105;28;20247;-69
2021/12/05 20:03:29;;;;;;;1.10;1.10;;;0.70;99.90;;;;;;4978232;28;20725;-69
2021/12/05 20:05:57;;;;;;;1.20;1.20;;;0.60;99.90;;;;;;4977786;28;20231;-70
2021/12/05 20:08:27;;;;;;;1.08;1.08;;;0.60;99.90;;;;;;4977751;28;20211;-70
2021/12/05 20:10:55;;;;;;;1.02;1.02;;;0.60;99.90;;;;;;4978158;28;20207;-69
2021/12/05 20:13:22;;;;;;;1.00;1.00;;;0.70;99.90;;;;;;4977821;28;20220;-68
2021/12/05 20:15:50;;;;;;;1.10;1.10;;;0.60;99.90;;;;;;4977679;28;20223;-68
2021/12/05 20:18:18;;;;;;;1.15;1.15;;;0.70;99.90;;;;;;4978038;28;20207;-68
2021/12/05 20:20:51;;;;;;;1.13;1.13;;;0.70;99.90;;;;;;4977810;28;20695;-69
2021/12/05 20:23:22;;;;;;;1.00;1.00;;;0.70;99.90;;;;;;4977778;28;20191;-69
2021/12/05 20:25:51;;;;;;;1.00;1.00;;;0.60;99.90;;;;;;4976921;28;20243;-69
2021/12/05 20:28:19;;;;;;;0.90;0.90;;;0.60;99.90;;;;;;4977526;28;20211;-69
2021/12/05 20:30:47;;;;;;;0.98;0.98;;;0.70;99.90;;;;;;4977625;28;20199;-69
2021/12/05 20:33:15;;;;;;;1.00;1.00;;;0.70;99.90;;;;;;4977665;28;20199;-70
2021/12/05 20:35:42;;;;;;;0.82;0.82;;;0.70;99.90;;;;;;4977281;28;20231;-69
2021/12/05 20:38:10;;;;;;;0.80;0.80;;;0.70;99.90;;;;;;4977608;28;20286;-69
2021/12/05 20:40:40;;;;;;;0.95;0.95;;;0.70;99.90;;;;;;4977240;28;20331;-69
2021/12/05 20:43:10;;;;;;;1.20;1.20;;;0.80;99.90;;;;;;4977462;28;20286;-69
2021/12/05 20:45:38;;;;;;;1.90;1.80;;;0.70;99.90;;;;;;4977989;28;20310;-70
2021/12/05 20:48:07;;;;;;;2.03;1.90;;;0.80;99.90;;;;;;4977256;28;20207;-70
2021/12/05 20:50:36;;;;;;;1.70;1.70;;;0.80;99.90;;;;;;4977266;28;20294;-71
2021/12/05 20:53:05;;;;;;;1.35;1.35;;;0.80;99.90;;;;;;4976980;28;20249;-70
2021/12/05 20:55:32;;;;;;;1.40;1.40;;;0.80;99.90;;;;;;4977110;28;20318;-72
2021/12/05 20:58:00;;;;;;;1.42;1.40;;;0.90;99.90;;;;;;4976967;28;20246;-71
2021/12/05 21:00:31;;;;;;;1.40;1.40;;;0.90;99.90;;;;;;4978037;28;20306;-69
2021/12/05 21:02:59;;;;;;;1.50;1.50;;;0.90;99.90;;;;;;4976992;28;20187;-70
2021/12/05 21:05:28;;;;;;;1.20;1.20;;;1.00;99.90;;;;;;4976871;28;20306;-70
2021/12/05 21:07:58;;;;;;;1.30;1.30;;;0.90;99.90;;;;;;4976920;28;20207;-70
2021/12/05 21:10:27;;;;;;;1.20;1.20;;;1.00;99.90;;;;;;4976717;28;20227;-69
2021/12/05 21:12:54;;;;;;;1.45;1.35;;;1.00;99.90;;;;;;4976830;28;20303;-69
2021/12/05 21:15:22;;;;;;;1.40;1.40;;;1.00;99.90;;;;;;4977190;28;20306;-71
2021/12/05 21:17:51;;;;;;;1.10;1.10;;;1.00;99.90;;;;;;4976487;28;20655;-69
2021/12/05 21:20:19;;;;;;;1.40;1.40;;;1.00;99.90;;;;;;4976548;28;20275;-69
2021/12/05 21:22:46;;;;;;;1.30;1.30;;;1.00;99.90;;;;;;4976724;28;20203;-69
2021/12/05 21:25:14;;;;;;;1.75;1.70;;;1.00;99.90;;;;;;4976498;28;20204;-69
2021/12/05 21:27:41;;;;;;;3.17;2.97;;;1.00;99.90;;;;;;4976265;28;20314;-69
2021/12/05 21:30:11;;;;;;;3.30;3.00;;;0.90;99.90;;;;;;4976566;28;20234;-69
2021/12/05 21:32:42;;;;;;;3.55;3.35;;;0.90;99.90;;;;;;4976465;28;20290;-69
2021/12/05 21:35:14;;;;;;;3.58;3.38;;;0.90;99.90;;;;;;4976589;28;20193;-69
2021/12/05 21:37:41;;;;;;;3.70;3.50;;;0.90;99.90;;;;;;4975873;28;20207;-70
2021/12/05 21:40:11;;;;;;;3.85;3.65;;;0.80;99.90;;;;;;5006548;23;20313;-67
2021/12/05 21:42:38;;;;;;;3.67;3.42;;;0.80;99.90;;;;;;4995332;28;20206;-67
2021/12/05 21:45:07;;;;;;;4.20;3.83;;;0.80;99.90;;;;;;4995052;28;20294;-68
2021/12/05 21:47:34;;;;;;;3.80;3.40;;;0.80;99.90;;;;;;4995245;28;20294;-68
2021/12/05 21:50:01;;;;;;;4.43;4.13;;;0.80;99.90;;;;;;4995001;28;20310;-68
2021/12/05 21:52:30;;;;;;;4.43;4.05;;;0.80;99.90;;;;;;4994879;28;20206;-68
2021/12/05 21:54:57;;;;;;;4.63;4.22;;;0.70;99.90;;;;;;4995218;28;20210;-69
2021/12/05 21:57:24;;;;;;;4.18;3.88;;;0.70;99.90;;;;;;4994713;28;20294;-69
2021/12/05 21:59:52;;;;;;;5.55;4.38;;;0.70;99.90;;;;;;4995022;28;20232;-69
2021/12/05 22:02:19;;;;;;;6.38;5.72;;;0.70;99.90;;;;;;4994982;28;20202;-69
2021/12/05 22:04:46;;;;;;;6.88;6.10;;;0.70;99.90;;;;;;4994626;28;20213;-68
2021/12/05 22:07:13;;;;;;;7.15;6.40;;;0.60;99.90;;;;;;4994624;28;20618;-69
2021/12/05 22:09:41;;;;;;;7.13;6.20;;;0.60;99.90;;;;;;4995010;28;20313;-69
2021/12/05 22:12:09;;;;;;;7.40;6.70;;;0.60;99.90;;;;;;4994803;28;20281;-69
2021/12/05 22:14:36;;;;;;;6.40;5.90;;;0.60;99.90;;;;;;4994473;28;20285;-69
2021/12/05 22:17:04;;;;;;;7.63;6.05;;;0.60;99.90;;;;;;4994347;28;20203;-69
2021/12/05 22:19:36;;;;;;;5.47;5.00;;;0.70;99.90;;;;;;4994381;28;20202;-72
2021/12/05 22:22:03;;;;;;;5.30;4.85;;;0.70;99.90;;;;;;4994649;28;20278;-68
2021/12/05 22:24:30;;;;;;;4.97;4.50;;;0.70;99.90;;;;;;4994603;28;20206;-69
2021/12/05 22:26:58;;;;;;;4.68;4.30;;;0.80;99.90;;;;;;4994335;28;20758;-69
2021/12/05 22:29:26;;;;;;;4.53;4.13;;;0.80;99.90;;;;;;4994385;28;20285;-69
2021/12/05 22:31:54;;;;;;;4.53;4.22;;;0.80;99.90;;;;;;4994041;28;20202;-69
2021/12/05 22:34:22;;;;;;;4.63;4.22;;;0.80;99.90;;;;;;4994444;28;20210;-69
2021/12/05 22:36:49;;;;;;;4.95;4.43;;;0.90;99.90;;;;;;4994500;28;20198;-69
2021/12/05 22:39:16;;;;;;;4.10;3.70;;;0.90;99.90;;;;;;4994295;28;20265;-69
2021/12/05 22:41:43;;;;;;;3.95;3.75;;;0.90;99.90;;;;;;4993696;28;20765;-69
2021/12/05 22:44:12;;;;;;;4.03;3.72;;;0.90;99.90;;;;;;4994188;28;20290;-69
2021/12/05 22:46:39;;;;;;;3.75;3.55;;;0.90;99.90;;;;;;4994410;28;20198;-68
